sensor_id;sensor_type;location;lat;lon;timestamp;temperature;humidity
10583;DHT22;33679;51.218;6.786;2023-06-22T00:01:04;26.90;99.40
10583;DHT22;33679;51.218;6.786;2023-06-22T00:03:37;26.90;99.50
10583;DHT22;33679;51.218;6.786;2023-06-22T00:06:11;26.80;99.50
10583;DHT22;33679;51.218;6.786;2023-06-22T00:08:46;26.80;99.50
10583;DHT22;33679;51.218;6.786;2023-06-22T00:11:18;26.80;99.70
10583;DHT22;33679;51.218;6.786;2023-06-22T00:13:51;26.80;99.60
10583;DHT22;33679;51.218;6.786;2023-06-22T00:16:23;26.70;99.60
10583;DHT22;33679;51.218;6.786;2023-06-22T00:18:55;26.70;99.80
10583;DHT22;33679;51.218;6.786;2023-06-22T00:21:34;26.60;99.70
10583;DHT22;33679;51.218;6.786;2023-06-22T00:24:08;26.60;99.70
10583;DHT22;33679;51.218;6.786;2023-06-22T00:26:40;26.50;99.70
10583;DHT22;33679;51.218;6.786;2023-06-22T00:29:16;26.50;99.80
10583;DHT22;33679;51.218;6.786;2023-06-22T00:31:49;26.50;99.80
10583;DHT22;33679;51.218;6.786;2023-06-22T00:34:21;26.50;99.90
10583;DHT22;33679;51.218;6.786;2023-06-22T00:36:55;26.50;99.90
10583;DHT22;33679;51.218;6.786;2023-06-22T00:39:27;26.50;99.90
10583;DHT22;33679;51.218;6.786;2023-06-22T00:42:00;26.40;99.90
10583;DHT22;33679;51.218;6.786;2023-06-22T00:44:32;26.40;99.90
10583;DHT22;33679;51.218;6.786;2023-06-22T00:47:06;26.40;99.90
10583;DHT22;33679;51.218;6.786;2023-06-22T00:49:39;26.40;99.90
10583;DHT22;33679;51.218;6.786;2023-06-22T00:52:13;26.30;99.90
10583;DHT22;33679;51.218;6.786;2023-06-22T00:54:51;26.30;99.90
10583;DHT22;33679;51.218;6.786;2023-06-22T00:57:25;26.30;99.90
10583;DHT22;33679;51.218;6.786;2023-06-22T01:00:00;26.30;99.90
10583;DHT22;33679;51.218;6.786;2023-06-22T01:02:34;26.30;99.90
10583;DHT22;33679;51.218;6.786;2023-06-22T01:05:08;26.20;99.90
10583;DHT22;33679;51.218;6.786;2023-06-22T01:07:45;26.20;99.90
10583;DHT22;33679;51.218;6.786;2023-06-22T01:10:25;26.20;99.90
10583;DHT22;33679;51.218;6.786;2023-06-22T01:13:01;26.20;99.90
10583;DHT22;33679;51.218;6.786;2023-06-22T01:15:37;26.20;99.90
10583;DHT22;33679;51.218;6.786;2023-06-22T01:18:13;26.10;99.90
10583;DHT22;33679;51.218;6.786;2023-06-22T01:20:48;26.10;99.90
10583;DHT22;33679;51.218;6.786;2023-06-22T01:23:33;26.00;99.90
10583;DHT22;33679;51.218;6.786;2023-06-22T01:26:17;26.00;99.90
10583;DHT22;33679;51.218;6.786;2023-06-22T01:28:54;25.90;99.90
10583;DHT22;33679;51.218;6.786;2023-06-22T01:31:28;25.80;99.90
10583;DHT22;33679;51.218;6.786;2023-06-22T01:34:03;25.80;99.90
10583;DHT22;33679;51.218;6.786;2023-06-22T01:36:38;25.80;99.90
10583;DHT22;33679;51.218;6.786;2023-06-22T01:39:13;25.80;99.90
10583;DHT22;33679;51.218;6.786;2023-06-22T01:41:48;25.80;99.90
10583;DHT22;33679;51.218;6.786;2023-06-22T01:44:22;25.70;99.90
10583;DHT22;33679;51.218;6.786;2023-06-22T01:46:56;25.70;99.90
10583;DHT22;33679;51.218;6.786;2023-06-22T01:49:28;25.70;99.90
10583;DHT22;33679;51.218;6.786;2023-06-22T01:52:03;25.70;99.90
10583;DHT22;33679;51.218;6.786;2023-06-22T01:54:36;25.60;99.90
10583;DHT22;33679;51.218;6.786;2023-06-22T01:57:08;25.70;99.90
10583;DHT22;33679;51.218;6.786;2023-06-22T01:59:51;25.70;99.90
10583;DHT22;33679;51.218;6.786;2023-06-22T02:02:28;25.70;99.90
10583;DHT22;33679;51.218;6.786;2023-06-22T02:05:05;25.60;99.90
10583;DHT22;33679;51.218;6.786;2023-06-22T02:07:44;25.60;99.90
10583;DHT22;33679;51.218;6.786;2023-06-22T02:10:20;25.60;99.90
10583;DHT22;33679;51.218;6.786;2023-06-22T02:12:54;25.50;99.90
10583;DHT22;33679;51.218;6.786;2023-06-22T02:15:30;25.60;99.90
10583;DHT22;33679;51.218;6.786;2023-06-22T02:18:04;25.60;99.90
10583;DHT22;33679;51.218;6.786;2023-06-22T02:20:37;25.70;99.90
10583;DHT22;33679;51.218;6.786;2023-06-22T02:23:10;25.70;99.90
10583;DHT22;33679;51.218;6.786;2023-06-22T02:25:42;25.70;99.90
10583;DHT22;33679;51.218;6.786;2023-06-22T02:28:15;25.70;99.90
10583;DHT22;33679;51.218;6.786;2023-06-22T02:30:50;25.70;99.90
10583;DHT22;33679;51.218;6.786;2023-06-22T02:33:23;25.70;99.90
10583;DHT22;33679;51.218;6.786;2023-06-22T02:35:58;25.60;99.90
10583;DHT22;33679;51.218;6.786;2023-06-22T02:38:30;25.60;99.90
10583;DHT22;33679;51.218;6.786;2023-06-22T02:41:04;25.60;99.90
10583;DHT22;33679;51.218;6.786;2023-06-22T02:43:37;25.70;99.90
10583;DHT22;33679;51.218;6.786;2023-06-22T02:46:11;25.60;99.90
10583;DHT22;33679;51.218;6.786;2023-06-22T02:48:44;25.60;99.90
10583;DHT22;33679;51.218;6.786;2023-06-22T02:51:16;25.60;99.90
10583;DHT22;33679;51.218;6.786;2023-06-22T02:53:48;25.60;99.90
10583;DHT22;33679;51.218;6.786;2023-06-22T02:56:22;25.60;99.90
10583;DHT22;33679;51.218;6.786;2023-06-22T02:59:00;25.60;99.90
10583;DHT22;33679;51.218;6.786;2023-06-22T03:01:38;25.60;99.90
10583;DHT22;33679;51.218;6.786;2023-06-22T03:04:20;25.70;99.90
10583;DHT22;33679;51.218;6.786;2023-06-22T03:06:52;25.60;99.90
10583;DHT22;33679;51.218;6.786;2023-06-22T03:09:24;25.60;99.90
10583;DHT22;33679;51.218;6.786;2023-06-22T03:12:00;25.70;99.90
10583;DHT22;33679;51.218;6.786;2023-06-22T03:14:42;25.60;99.90
10583;DHT22;33679;51.218;6.786;2023-06-22T03:17:15;25.60;99.90
10583;DHT22;33679;51.218;6.786;2023-06-22T03:19:47;25.70;99.90
10583;DHT22;33679;51.218;6.786;2023-06-22T03:22:20;25.70;99.90
10583;DHT22;33679;51.218;6.786;2023-06-22T03:24:54;25.80;99.90
10583;DHT22;33679;51.218;6.786;2023-06-22T03:27:26;25.70;99.90
10583;DHT22;33679;51.218;6.786;2023-06-22T03:29:59;25.70;99.90
10583;DHT22;33679;51.218;6.786;2023-06-22T03:32:33;25.70;99.90
10583;DHT22;33679;51.218;6.786;2023-06-22T03:35:06;25.70;99.90
10583;DHT22;33679;51.218;6.786;2023-06-22T03:37:40;25.70;99.90
10583;DHT22;33679;51.218;6.786;2023-06-22T03:40:13;25.70;99.90
10583;DHT22;33679;51.218;6.786;2023-06-22T03:42:45;25.60;99.90
10583;DHT22;33679;51.218;6.786;2023-06-22T03:45:18;25.60;99.90
10583;DHT22;33679;51.218;6.786;2023-06-22T03:47:53;25.70;99.90
10583;DHT22;33679;51.218;6.786;2023-06-22T03:50:25;25.70;99.90
10583;DHT22;33679;51.218;6.786;2023-06-22T03:52:57;25.70;99.90
10583;DHT22;33679;51.218;6.786;2023-06-22T03:55:30;25.70;99.90
10583;DHT22;33679;51.218;6.786;2023-06-22T03:58:02;25.60;99.90
10583;DHT22;33679;51.218;6.786;2023-06-22T04:00:36;25.60;99.90
10583;DHT22;33679;51.218;6.786;2023-06-22T04:03:10;25.60;99.90
10583;DHT22;33679;51.218;6.786;2023-06-22T04:05:42;25.60;99.90
10583;DHT22;33679;51.218;6.786;2023-06-22T04:08:15;25.60;99.90
10583;DHT22;33679;51.218;6.786;2023-06-22T04:10:47;25.60;99.90
10583;DHT22;33679;51.218;6.786;2023-06-22T04:13:21;25.60;99.90
10583;DHT22;33679;51.218;6.786;2023-06-22T04:15:53;25.60;99.90
10583;DHT22;33679;51.218;6.786;2023-06-22T04:18:27;25.60;99.90
10583;DHT22;33679;51.218;6.786;2023-06-22T04:20:59;25.60;99.90
10583;DHT22;33679;51.218;6.786;2023-06-22T04:23:31;25.60;99.90
10583;DHT22;33679;51.218;6.786;2023-06-22T04:26:04;25.60;99.90
10583;DHT22;33679;51.218;6.786;2023-06-22T04:28:36;25.70;99.90
10583;DHT22;33679;51.218;6.786;2023-06-22T04:31:08;25.80;99.90
10583;DHT22;33679;51.218;6.786;2023-06-22T04:33:42;25.80;99.90
10583;DHT22;33679;51.218;6.786;2023-06-22T04:36:14;25.70;99.90
10583;DHT22;33679;51.218;6.786;2023-06-22T04:38:46;25.70;99.90
10583;DHT22;33679;51.218;6.786;2023-06-22T04:41:23;25.60;99.90
10583;DHT22;33679;51.218;6.786;2023-06-22T04:43:57;25.50;99.90
10583;DHT22;33679;51.218;6.786;2023-06-22T04:46:30;25.50;99.90
10583;DHT22;33679;51.218;6.786;2023-06-22T04:49:09;25.50;99.90
10583;DHT22;33679;51.218;6.786;2023-06-22T04:51:42;25.50;99.90
10583;DHT22;33679;51.218;6.786;2023-06-22T04:54:14;25.60;99.90
10583;DHT22;33679;51.218;6.786;2023-06-22T04:56:46;25.60;99.90
10583;DHT22;33679;51.218;6.786;2023-06-22T04:59:24;25.60;99.90
10583;DHT22;33679;51.218;6.786;2023-06-22T05:02:01;25.60;99.90
10583;DHT22;33679;51.218;6.786;2023-06-22T05:04:35;25.60;99.90
10583;DHT22;33679;51.218;6.786;2023-06-22T05:07:09;25.60;99.90
10583;DHT22;33679;51.218;6.786;2023-06-22T05:09:44;25.60;99.90
10583;DHT22;33679;51.218;6.786;2023-06-22T05:12:16;25.60;99.90
10583;DHT22;33679;51.218;6.786;2023-06-22T05:14:48;25.70;99.90
10583;DHT22;33679;51.218;6.786;2023-06-22T05:17:21;25.70;99.90
10583;DHT22;33679;51.218;6.786;2023-06-22T05:19:54;25.70;99.90
10583;DHT22;33679;51.218;6.786;2023-06-22T05:22:27;25.70;99.90
10583;DHT22;33679;51.218;6.786;2023-06-22T05:25:02;25.70;99.90
10583;DHT22;33679;51.218;6.786;2023-06-22T05:27:34;25.70;99.90
10583;DHT22;33679;51.218;6.786;2023-06-22T05:30:10;25.70;99.90
10583;DHT22;33679;51.218;6.786;2023-06-22T05:32:43;25.70;99.90
10583;DHT22;33679;51.218;6.786;2023-06-22T05:35:16;25.70;99.90
10583;DHT22;33679;51.218;6.786;2023-06-22T05:37:48;25.70;99.90
10583;DHT22;33679;51.218;6.786;2023-06-22T05:40:23;25.80;99.90
10583;DHT22;33679;51.218;6.786;2023-06-22T05:42:58;25.80;99.90
10583;DHT22;33679;51.218;6.786;2023-06-22T05:45:31;25.80;99.90
10583;DHT22;33679;51.218;6.786;2023-06-22T05:48:04;25.80;99.90
10583;DHT22;33679;51.218;6.786;2023-06-22T05:50:38;25.80;99.90
10583;DHT22;33679;51.218;6.786;2023-06-22T05:53:10;25.90;99.90
10583;DHT22;33679;51.218;6.786;2023-06-22T05:55:45;25.80;99.90
10583;DHT22;33679;51.218;6.786;2023-06-22T05:58:17;25.80;99.90
10583;DHT22;33679;51.218;6.786;2023-06-22T06:00:50;25.80;99.90
10583;DHT22;33679;51.218;6.786;2023-06-22T06:03:22;25.80;99.90
10583;DHT22;33679;51.218;6.786;2023-06-22T06:05:56;25.80;99.90
10583;DHT22;33679;51.218;6.786;2023-06-22T06:08:29;25.80;99.90
10583;DHT22;33679;51.218;6.786;2023-06-22T06:11:02;25.80;99.90
10583;DHT22;33679;51.218;6.786;2023-06-22T06:13:34;25.80;99.90
10583;DHT22;33679;51.218;6.786;2023-06-22T06:16:07;25.80;99.90
10583;DHT22;33679;51.218;6.786;2023-06-22T06:18:39;25.70;99.90
10583;DHT22;33679;51.218;6.786;2023-06-22T06:21:13;25.70;99.90
10583;DHT22;33679;51.218;6.786;2023-06-22T06:23:45;25.70;99.90
10583;DHT22;33679;51.218;6.786;2023-06-22T06:26:18;25.80;99.90
10583;DHT22;33679;51.218;6.786;2023-06-22T06:28:59;25.80;99.90
10583;DHT22;33679;51.218;6.786;2023-06-22T06:31:33;25.90;99.90
10583;DHT22;33679;51.218;6.786;2023-06-22T06:34:05;26.00;99.90
10583;DHT22;33679;51.218;6.786;2023-06-22T06:36:40;26.00;99.90
10583;DHT22;33679;51.218;6.786;2023-06-22T06:39:13;26.10;99.90
10583;DHT22;33679;51.218;6.786;2023-06-22T06:41:47;26.00;99.90
10583;DHT22;33679;51.218;6.786;2023-06-22T06:44:20;26.10;99.90
10583;DHT22;33679;51.218;6.786;2023-06-22T06:46:55;26.10;99.90
10583;DHT22;33679;51.218;6.786;2023-06-22T06:49:28;26.10;99.90
10583;DHT22;33679;51.218;6.786;2023-06-22T06:52:03;26.10;99.90
10583;DHT22;33679;51.218;6.786;2023-06-22T06:54:37;26.10;99.90
10583;DHT22;33679;51.218;6.786;2023-06-22T06:57:10;26.10;99.90
10583;DHT22;33679;51.218;6.786;2023-06-22T06:59:44;26.10;99.90
10583;DHT22;33679;51.218;6.786;2023-06-22T07:02:29;26.10;99.90
10583;DHT22;33679;51.218;6.786;2023-06-22T07:05:04;26.10;99.90
10583;DHT22;33679;51.218;6.786;2023-06-22T07:07:39;26.10;99.90
10583;DHT22;33679;51.218;6.786;2023-06-22T07:10:13;26.00;99.90
10583;DHT22;33679;51.218;6.786;2023-06-22T07:12:46;26.10;99.90
10583;DHT22;33679;51.218;6.786;2023-06-22T07:15:18;26.00;99.90
10583;DHT22;33679;51.218;6.786;2023-06-22T07:17:51;26.00;99.90
10583;DHT22;33679;51.218;6.786;2023-06-22T07:20:23;26.00;99.90
10583;DHT22;33679;51.218;6.786;2023-06-22T07:22:56;26.00;99.90
10583;DHT22;33679;51.218;6.786;2023-06-22T07:25:29;26.00;99.90
10583;DHT22;33679;51.218;6.786;2023-06-22T07:28:03;26.00;99.90
10583;DHT22;33679;51.218;6.786;2023-06-22T07:30:36;26.00;99.90
10583;DHT22;33679;51.218;6.786;2023-06-22T07:33:10;26.00;99.90
10583;DHT22;33679;51.218;6.786;2023-06-22T07:35:42;25.90;99.90
10583;DHT22;33679;51.218;6.786;2023-06-22T07:38:20;25.80;99.90
10583;DHT22;33679;51.218;6.786;2023-06-22T07:40:52;25.80;99.90
10583;DHT22;33679;51.218;6.786;2023-06-22T07:43:25;25.80;99.90
10583;DHT22;33679;51.218;6.786;2023-06-22T07:45:58;25.70;99.90
10583;DHT22;33679;51.218;6.786;2023-06-22T07:48:37;25.60;99.90
10583;DHT22;33679;51.218;6.786;2023-06-22T07:51:09;25.60;99.90
10583;DHT22;33679;51.218;6.786;2023-06-22T07:53:45;25.60;99.90
10583;DHT22;33679;51.218;6.786;2023-06-22T07:56:17;25.60;99.90
10583;DHT22;33679;51.218;6.786;2023-06-22T07:58:51;25.70;99.90
10583;DHT22;33679;51.218;6.786;2023-06-22T08:01:25;25.80;99.90
10583;DHT22;33679;51.218;6.786;2023-06-22T08:03:58;26.00;99.90
10583;DHT22;33679;51.218;6.786;2023-06-22T08:06:30;26.10;99.90
10583;DHT22;33679;51.218;6.786;2023-06-22T08:09:06;26.30;99.90
10583;DHT22;33679;51.218;6.786;2023-06-22T08:11:38;26.50;99.90
10583;DHT22;33679;51.218;6.786;2023-06-22T08:14:13;26.50;99.90
10583;DHT22;33679;51.218;6.786;2023-06-22T08:16:45;26.60;99.90
10583;DHT22;33679;51.218;6.786;2023-06-22T08:19:18;26.70;99.90
10583;DHT22;33679;51.218;6.786;2023-06-22T08:21:50;26.70;99.90
10583;DHT22;33679;51.218;6.786;2023-06-22T08:24:24;26.80;99.90
10583;DHT22;33679;51.218;6.786;2023-06-22T08:26:58;26.90;99.90
10583;DHT22;33679;51.218;6.786;2023-06-22T08:29:31;27.10;99.90
10583;DHT22;33679;51.218;6.786;2023-06-22T08:32:05;27.20;99.90
10583;DHT22;33679;51.218;6.786;2023-06-22T08:34:38;27.40;99.90
10583;DHT22;33679;51.218;6.786;2023-06-22T08:37:13;27.50;99.90
10583;DHT22;33679;51.218;6.786;2023-06-22T08:39:47;27.70;99.90
10583;DHT22;33679;51.218;6.786;2023-06-22T08:42:20;27.80;99.90
10583;DHT22;33679;51.218;6.786;2023-06-22T08:44:54;28.00;99.90
10583;DHT22;33679;51.218;6.786;2023-06-22T08:47:27;28.00;99.90
10583;DHT22;33679;51.218;6.786;2023-06-22T08:50:00;28.10;99.90
10583;DHT22;33679;51.218;6.786;2023-06-22T08:52:34;28.20;99.90
10583;DHT22;33679;51.218;6.786;2023-06-22T08:55:09;28.30;99.90
10583;DHT22;33679;51.218;6.786;2023-06-22T08:57:42;28.40;99.90
10583;DHT22;33679;51.218;6.786;2023-06-22T09:00:16;28.50;99.90
10583;DHT22;33679;51.218;6.786;2023-06-22T09:02:50;28.40;99.90
10583;DHT22;33679;51.218;6.786;2023-06-22T09:05:23;28.40;99.90
10583;DHT22;33679;51.218;6.786;2023-06-22T09:07:56;28.40;99.90
10583;DHT22;33679;51.218;6.786;2023-06-22T09:10:30;28.40;99.90
10583;DHT22;33679;51.218;6.786;2023-06-22T09:13:03;28.30;99.90
10583;DHT22;33679;51.218;6.786;2023-06-22T09:15:36;28.30;99.90
10583;DHT22;33679;51.218;6.786;2023-06-22T09:18:14;28.30;99.90
10583;DHT22;33679;51.218;6.786;2023-06-22T09:20:46;28.30;99.90
10583;DHT22;33679;51.218;6.786;2023-06-22T09:23:18;28.30;99.90
10583;DHT22;33679;51.218;6.786;2023-06-22T09:25:52;28.50;99.90
10583;DHT22;33679;51.218;6.786;2023-06-22T09:28:27;28.50;99.90
10583;DHT22;33679;51.218;6.786;2023-06-22T09:31:00;28.70;99.90
10583;DHT22;33679;51.218;6.786;2023-06-22T09:33:32;28.80;99.90
10583;DHT22;33679;51.218;6.786;2023-06-22T09:36:06;28.90;99.90
10583;DHT22;33679;51.218;6.786;2023-06-22T09:38:39;29.00;99.90
10583;DHT22;33679;51.218;6.786;2023-06-22T09:41:13;29.10;99.90
10583;DHT22;33679;51.218;6.786;2023-06-22T09:43:47;29.10;99.90
10583;DHT22;33679;51.218;6.786;2023-06-22T09:46:19;29.10;99.90
10583;DHT22;33679;51.218;6.786;2023-06-22T09:49:10;29.20;99.90
10583;DHT22;33679;51.218;6.786;2023-06-22T09:52:11;29.40;99.90
10583;DHT22;33679;51.218;6.786;2023-06-22T09:54:44;29.50;99.90
10583;DHT22;33679;51.218;6.786;2023-06-22T09:57:17;29.60;99.90
10583;DHT22;33679;51.218;6.786;2023-06-22T09:59:52;29.70;99.90
10583;DHT22;33679;51.218;6.786;2023-06-22T10:02:24;29.80;99.90
10583;DHT22;33679;51.218;6.786;2023-06-22T10:04:57;30.00;99.90
10583;DHT22;33679;51.218;6.786;2023-06-22T10:07:29;30.10;99.90
10583;DHT22;33679;51.218;6.786;2023-06-22T10:10:02;30.20;99.90
10583;DHT22;33679;51.218;6.786;2023-06-22T10:12:46;30.40;99.90
10583;DHT22;33679;51.218;6.786;2023-06-22T10:15:19;30.40;99.90
10583;DHT22;33679;51.218;6.786;2023-06-22T10:17:52;30.50;99.90
10583;DHT22;33679;51.218;6.786;2023-06-22T10:20:24;30.50;99.90
10583;DHT22;33679;51.218;6.786;2023-06-22T10:22:57;30.60;99.90
10583;DHT22;33679;51.218;6.786;2023-06-22T10:25:32;30.70;99.90
10583;DHT22;33679;51.218;6.786;2023-06-22T10:28:06;30.70;99.90
10583;DHT22;33679;51.218;6.786;2023-06-22T10:30:39;30.70;99.90
10583;DHT22;33679;51.218;6.786;2023-06-22T10:33:12;30.70;99.90
10583;DHT22;33679;51.218;6.786;2023-06-22T10:35:45;30.60;99.90
10583;DHT22;33679;51.218;6.786;2023-06-22T10:38:17;30.60;99.90
10583;DHT22;33679;51.218;6.786;2023-06-22T10:40:50;30.50;99.90
10583;DHT22;33679;51.218;6.786;2023-06-22T10:43:24;30.40;99.90
10583;DHT22;33679;51.218;6.786;2023-06-22T10:46:02;30.30;99.90
10583;DHT22;33679;51.218;6.786;2023-06-22T10:48:34;30.20;99.90
10583;DHT22;33679;51.218;6.786;2023-06-22T10:51:07;30.10;99.90
10583;DHT22;33679;51.218;6.786;2023-06-22T10:53:39;30.10;99.90
10583;DHT22;33679;51.218;6.786;2023-06-22T10:56:14;30.00;99.90
10583;DHT22;33679;51.218;6.786;2023-06-22T10:58:47;29.80;99.90
10583;DHT22;33679;51.218;6.786;2023-06-22T11:01:20;29.70;99.90
10583;DHT22;33679;51.218;6.786;2023-06-22T11:03:53;29.70;99.90
10583;DHT22;33679;51.218;6.786;2023-06-22T11:06:27;29.70;99.90
10583;DHT22;33679;51.218;6.786;2023-06-22T11:08:59;29.60;99.90
10583;DHT22;33679;51.218;6.786;2023-06-22T11:11:32;29.60;99.90
10583;DHT22;33679;51.218;6.786;2023-06-22T11:14:06;29.50;99.90
10583;DHT22;33679;51.218;6.786;2023-06-22T11:16:38;29.50;99.90
10583;DHT22;33679;51.218;6.786;2023-06-22T11:19:11;29.40;99.90
10583;DHT22;33679;51.218;6.786;2023-06-22T11:21:46;29.40;99.90
10583;DHT22;33679;51.218;6.786;2023-06-22T11:24:20;29.30;99.90
10583;DHT22;33679;51.218;6.786;2023-06-22T11:26:52;29.30;99.90
10583;DHT22;33679;51.218;6.786;2023-06-22T11:29:28;29.20;99.90
10583;DHT22;33679;51.218;6.786;2023-06-22T11:32:07;29.10;99.90
10583;DHT22;33679;51.218;6.786;2023-06-22T11:34:41;29.00;99.90
10583;DHT22;33679;51.218;6.786;2023-06-22T11:37:17;28.90;99.90
10583;DHT22;33679;51.218;6.786;2023-06-22T11:39:53;28.70;99.90
10583;DHT22;33679;51.218;6.786;2023-06-22T11:42:26;28.60;99.90
10583;DHT22;33679;51.218;6.786;2023-06-22T11:45:07;28.50;99.90
10583;DHT22;33679;51.218;6.786;2023-06-22T11:47:40;28.30;99.90
10583;DHT22;33679;51.218;6.786;2023-06-22T11:50:13;28.20;99.90
10583;DHT22;33679;51.218;6.786;2023-06-22T11:52:48;28.00;99.90
10583;DHT22;33679;51.218;6.786;2023-06-22T11:55:20;28.00;99.90
10583;DHT22;33679;51.218;6.786;2023-06-22T11:57:54;28.00;99.90
10583;DHT22;33679;51.218;6.786;2023-06-22T12:00:31;27.80;99.90
10583;DHT22;33679;51.218;6.786;2023-06-22T12:03:04;27.70;99.90
10583;DHT22;33679;51.218;6.786;2023-06-22T12:05:39;27.60;99.90
10583;DHT22;33679;51.218;6.786;2023-06-22T12:08:13;27.50;99.90
10583;DHT22;33679;51.218;6.786;2023-06-22T12:10:45;27.40;99.90
10583;DHT22;33679;51.218;6.786;2023-06-22T12:13:18;27.50;99.90
10583;DHT22;33679;51.218;6.786;2023-06-22T12:15:52;27.50;99.90
10583;DHT22;33679;51.218;6.786;2023-06-22T12:18:24;27.50;99.90
10583;DHT22;33679;51.218;6.786;2023-06-22T12:20:57;27.50;99.90
10583;DHT22;33679;51.218;6.786;2023-06-22T12:23:29;27.50;99.90
10583;DHT22;33679;51.218;6.786;2023-06-22T12:26:04;27.50;99.90
10583;DHT22;33679;51.218;6.786;2023-06-22T12:28:37;27.60;99.90
10583;DHT22;33679;51.218;6.786;2023-06-22T12:31:11;27.60;99.90
10583;DHT22;33679;51.218;6.786;2023-06-22T12:33:44;27.60;99.90
10583;DHT22;33679;51.218;6.786;2023-06-22T12:36:16;27.60;99.90
10583;DHT22;33679;51.218;6.786;2023-06-22T12:38:51;27.60;99.90
10583;DHT22;33679;51.218;6.786;2023-06-22T12:41:23;27.50;99.90
10583;DHT22;33679;51.218;6.786;2023-06-22T12:43:56;27.40;99.90
10583;DHT22;33679;51.218;6.786;2023-06-22T12:46:29;27.40;99.90
10583;DHT22;33679;51.218;6.786;2023-06-22T12:49:08;27.30;99.90
10583;DHT22;33679;51.218;6.786;2023-06-22T12:51:41;27.30;99.90
10583;DHT22;33679;51.218;6.786;2023-06-22T12:54:14;27.30;99.90
10583;DHT22;33679;51.218;6.786;2023-06-22T12:56:53;27.30;99.90
10583;DHT22;33679;51.218;6.786;2023-06-22T12:59:32;27.30;99.90
10583;DHT22;33679;51.218;6.786;2023-06-22T13:02:06;27.30;99.90
10583;DHT22;33679;51.218;6.786;2023-06-22T13:04:39;27.30;99.90
10583;DHT22;33679;51.218;6.786;2023-06-22T13:07:12;27.30;99.90
10583;DHT22;33679;51.218;6.786;2023-06-22T13:09:46;27.20;99.90
10583;DHT22;33679;51.218;6.786;2023-06-22T13:12:22;27.20;99.90
10583;DHT22;33679;51.218;6.786;2023-06-22T13:14:54;27.20;99.90
10583;DHT22;33679;51.218;6.786;2023-06-22T13:17:28;27.10;99.90
10583;DHT22;33679;51.218;6.786;2023-06-22T13:20:01;27.10;99.90
10583;DHT22;33679;51.218;6.786;2023-06-22T13:22:35;27.00;99.90
10583;DHT22;33679;51.218;6.786;2023-06-22T13:25:11;26.90;99.90
10583;DHT22;33679;51.218;6.786;2023-06-22T13:27:52;26.80;99.90
10583;DHT22;33679;51.218;6.786;2023-06-22T13:30:26;26.90;99.90
10583;DHT22;33679;51.218;6.786;2023-06-22T13:33:02;26.90;99.90
10583;DHT22;33679;51.218;6.786;2023-06-22T13:35:36;27.00;99.90
10583;DHT22;33679;51.218;6.786;2023-06-22T13:38:09;27.10;99.90
10583;DHT22;33679;51.218;6.786;2023-06-22T13:40:43;27.20;99.90
10583;DHT22;33679;51.218;6.786;2023-06-22T13:43:16;27.30;99.90
10583;DHT22;33679;51.218;6.786;2023-06-22T13:45:51;27.40;99.90
10583;DHT22;33679;51.218;6.786;2023-06-22T13:48:25;27.50;99.90
10583;DHT22;33679;51.218;6.786;2023-06-22T13:51:01;27.50;99.90
10583;DHT22;33679;51.218;6.786;2023-06-22T13:53:34;27.50;99.90
10583;DHT22;33679;51.218;6.786;2023-06-22T13:56:07;27.50;99.90
10583;DHT22;33679;51.218;6.786;2023-06-22T13:58:40;27.50;99.90
10583;DHT22;33679;51.218;6.786;2023-06-22T14:01:19;27.40;99.90
10583;DHT22;33679;51.218;6.786;2023-06-22T14:03:53;27.50;99.90
10583;DHT22;33679;51.218;6.786;2023-06-22T14:06:28;27.50;99.90
10583;DHT22;33679;51.218;6.786;2023-06-22T14:09:00;27.40;99.90
10583;DHT22;33679;51.218;6.786;2023-06-22T14:11:35;27.40;99.90
10583;DHT22;33679;51.218;6.786;2023-06-22T14:14:08;27.40;99.90
10583;DHT22;33679;51.218;6.786;2023-06-22T14:16:41;27.30;99.90
10583;DHT22;33679;51.218;6.786;2023-06-22T14:19:19;27.20;99.90
10583;DHT22;33679;51.218;6.786;2023-06-22T14:21:51;27.20;99.90
10583;DHT22;33679;51.218;6.786;2023-06-22T14:24:23;27.10;99.90
10583;DHT22;33679;51.218;6.786;2023-06-22T14:26:57;27.10;99.90
10583;DHT22;33679;51.218;6.786;2023-06-22T14:29:34;27.00;99.90
10583;DHT22;33679;51.218;6.786;2023-06-22T14:32:08;27.10;99.90
10583;DHT22;33679;51.218;6.786;2023-06-22T14:34:43;27.00;99.90
10583;DHT22;33679;51.218;6.786;2023-06-22T14:37:15;27.00;99.90
10583;DHT22;33679;51.218;6.786;2023-06-22T14:39:48;26.90;99.90
10583;DHT22;33679;51.218;6.786;2023-06-22T14:42:21;26.80;99.90
10583;DHT22;33679;51.218;6.786;2023-06-22T14:44:53;26.70;99.90
10583;DHT22;33679;51.218;6.786;2023-06-22T14:47:26;26.60;99.90
10583;DHT22;33679;51.218;6.786;2023-06-22T14:50:05;26.60;99.90
10583;DHT22;33679;51.218;6.786;2023-06-22T14:52:38;26.60;99.90
10583;DHT22;33679;51.218;6.786;2023-06-22T14:55:10;26.50;99.90
10583;DHT22;33679;51.218;6.786;2023-06-22T14:57:46;26.60;99.90
10583;DHT22;33679;51.218;6.786;2023-06-22T15:00:19;26.60;99.90
10583;DHT22;33679;51.218;6.786;2023-06-22T15:02:57;26.60;99.90
10583;DHT22;33679;51.218;6.786;2023-06-22T15:05:32;26.50;99.90
10583;DHT22;33679;51.218;6.786;2023-06-22T15:08:12;26.50;99.90
10583;DHT22;33679;51.218;6.786;2023-06-22T15:10:47;26.50;99.90
10583;DHT22;33679;51.218;6.786;2023-06-22T15:13:20;26.50;99.90
10583;DHT22;33679;51.218;6.786;2023-06-22T15:15:53;26.40;99.90
10583;DHT22;33679;51.218;6.786;2023-06-22T15:18:26;26.50;99.90
10583;DHT22;33679;51.218;6.786;2023-06-22T15:21:17;26.50;99.90
10583;DHT22;33679;51.218;6.786;2023-06-22T15:23:51;26.60;99.90
10583;DHT22;33679;51.218;6.786;2023-06-22T15:26:24;26.60;99.90
10583;DHT22;33679;51.218;6.786;2023-06-22T15:29:04;26.70;99.90
10583;DHT22;33679;51.218;6.786;2023-06-22T15:31:37;26.70;99.90
10583;DHT22;33679;51.218;6.786;2023-06-22T15:34:15;26.60;99.90
10583;DHT22;33679;51.218;6.786;2023-06-22T15:36:51;26.50;99.90
10583;DHT22;33679;51.218;6.786;2023-06-22T15:39:31;26.40;99.90
10583;DHT22;33679;51.218;6.786;2023-06-22T15:42:07;26.20;99.90
10583;DHT22;33679;51.218;6.786;2023-06-22T15:44:39;26.10;99.90
10583;DHT22;33679;51.218;6.786;2023-06-22T15:47:14;26.00;99.90
10583;DHT22;33679;51.218;6.786;2023-06-22T15:49:50;25.90;99.90
10583;DHT22;33679;51.218;6.786;2023-06-22T15:52:26;25.80;99.90
10583;DHT22;33679;51.218;6.786;2023-06-22T15:54:59;25.80;99.90
10583;DHT22;33679;51.218;6.786;2023-06-22T15:57:31;25.70;99.90
10583;DHT22;33679;51.218;6.786;2023-06-22T16:00:09;25.70;99.90
10583;DHT22;33679;51.218;6.786;2023-06-22T16:02:46;25.70;99.90
10583;DHT22;33679;51.218;6.786;2023-06-22T16:05:18;25.70;99.90
10583;DHT22;33679;51.218;6.786;2023-06-22T16:07:55;25.60;99.90
10583;DHT22;33679;51.218;6.786;2023-06-22T16:10:30;25.60;99.90
10583;DHT22;33679;51.218;6.786;2023-06-22T16:13:05;25.60;99.90